Time;durP1;ratioP1;P1;durP2;ratioP2;P2;SDS_P1;SDS_P2;PMS_P1;PMS_P2;Temp;Humidity;BMP_temperature;BMP_pressure;BME280_temperature;BME280_humidity;BME280_pressure;Samples;Min_cycle;Max_cycle;Signal;HPM_P1;HPM_P2
2023/11/23 00:00:09;;;;;;;40.07;24.17;;;;;;;8.42;100.00;103958.59;5024417;28;20184;-75
2023/11/23 00:02:35;;;;;;;41.17;23.33;;;;;;;7.83;100.00;103856.66;5025538;28;20489;-74
2023/11/23 00:05:01;;;;;;;38.83;24.17;;;;;;;8.11;100.00;103911.72;5024891;28;20960;-75
2023/11/23 00:07:26;;;;;;;36.10;21.90;;;;;;;8.58;100.00;103953.00;5025649;28;20465;-73
2023/11/23 00:09:51;;;;;;;37.50;20.97;;;;;;;7.86;100.00;103846.59;5024092;28;20214;-75
2023/11/23 00:12:18;;;;;;;35.97;20.90;;;;;;;8.42;100.00;103928.28;5023998;28;20192;-74
2023/11/23 00:14:43;;;;;;;30.70;20.67;;;;;;;8.62;100.00;103959.84;5023495;28;20224;-75
2023/11/23 00:17:09;;;;;;;35.43;20.10;;;;;;;8.10;100.00;103843.16;5024346;28;20954;-75
2023/11/23 00:19:34;;;;;;;33.77;18.93;;;;;;;7.88;100.00;103820.63;5024908;28;20424;-74
2023/11/23 00:22:01;;;;;;;38.83;18.97;;;;;;;8.53;100.00;103931.94;5025534;28;20680;-75
2023/11/23 00:24:26;;;;;;;33.77;18.50;;;;;;;8.50;100.00;103929.44;5020864;28;20285;-75
2023/11/23 00:26:53;;;;;;;32.20;19.03;;;;;;;8.76;100.00;103969.53;5023860;28;20501;-75
2023/11/23 00:29:20;;;;;;;32.23;17.17;;;;;;;7.78;100.00;103816.91;5039546;28;20709;-75
2023/11/23 00:31:46;;;;;;;26.43;18.23;;;;;;;8.68;100.00;103938.00;5023127;28;20526;-75
2023/11/23 00:34:11;;;;;;;37.90;17.87;;;;;;;8.64;100.00;103925.78;5022108;28;20504;-75
2023/11/23 00:36:37;;;;;;;28.87;17.63;;;;;;;8.14;100.00;103864.22;5022442;28;20195;-76
2023/11/23 00:39:04;;;;;;;28.70;17.27;;;;;;;8.06;100.00;103810.44;5022655;28;20183;-75
2023/11/23 00:41:29;;;;;;;32.20;17.07;;;;;;;8.21;100.00;103827.19;5027047;28;20450;-75
2023/11/23 00:43:57;;;;;;;43.07;18.10;;;;;;;8.45;100.00;103878.13;5027320;28;20478;-75
2023/11/23 00:46:22;;;;;;;33.17;17.53;;;;;;;8.37;100.00;103862.56;5024400;28;20649;-75
2023/11/23 00:48:48;;;;;;;27.93;16.80;;;;;;;8.70;100.00;103911.97;5024112;28;20485;-75
2023/11/23 00:51:14;;;;;;;33.83;16.23;;;;;;;6.95;100.00;103659.75;5026057;28;20194;-75
2023/11/23 00:53:40;;;;;;;26.53;17.00;;;;;;;8.42;100.00;103872.09;5023926;28;20210;-75
2023/11/23 00:56:05;;;;;;;27.70;16.67;;;;;;;8.53;100.00;103918.56;5023663;28;20447;-75
2023/11/23 00:58:31;;;;;;;28.30;15.87;;;;;;;8.87;100.00;103958.91;5023583;28;20207;-75
2023/11/23 01:00:56;;;;;;;35.70;17.43;;;;;;;8.33;100.00;103846.84;5021193;28;20190;-75
2023/11/23 01:03:24;;;;;;;32.87;17.70;;;;;;;8.63;100.00;103865.22;5021504;28;20204;-74
2023/11/23 01:05:49;;;;;;;32.00;16.47;;;;;;;8.93;100.00;103896.91;5024518;28;20187;-75
2023/11/23 01:08:16;;;;;;;36.50;16.63;;;;;;;8.94;100.00;103884.34;5023212;28;20489;-74
2023/11/23 01:10:41;;;;;;;25.63;15.30;;;;;;;8.90;100.00;103856.97;5022382;28;20184;-75
2023/11/23 01:13:07;;;;;;;31.10;14.90;;;;;;;8.71;100.00;103836.09;5037687;23;20461;-69
2023/11/23 01:15:32;;;;;;;26.90;15.33;;;;;;;9.04;100.00;103842.56;5026954;28;20222;-68
2023/11/23 01:17:58;;;;;;;28.07;14.70;;;;;;;8.98;100.00;103821.59;5053840;28;20187;-68
2023/11/23 01:20:23;;;;;;;31.27;14.00;;;;;;;9.35;100.00;103850.97;5032000;28;20542;-68
2023/11/23 01:22:49;;;;;;;25.40;13.47;;;;;;;9.09;100.00;103776.13;5022339;28;20216;-68
2023/11/23 01:25:14;;;;;;;21.00;12.33;;;;;;;9.24;100.00;103796.38;5033471;28;20196;-69
2023/11/23 01:27:40;;;;;;;25.60;10.53;;;;;;;9.51;100.00;103805.91;5023145;28;20210;-69
2023/11/23 01:30:06;;;;;;;21.10;9.90;;;;;;;9.48;100.00;103779.38;5018145;28;20192;-69
2023/11/23 01:32:32;;;;;;;32.70;11.00;;;;;;;9.33;100.00;103759.13;5014994;28;20208;-69
2023/11/23 01:34:58;;;;;;;24.87;9.40;;;;;;;9.25;100.00;103724.91;5020364;28;20439;-68
2023/11/23 01:37:23;;;;;;;26.27;10.00;;;;;;;9.28;100.00;103716.63;5038579;28;20439;-68
2023/11/23 01:39:48;;;;;;;18.10;8.47;;;;;;;9.60;100.00;103727.47;5019262;28;20187;-69
2023/11/23 01:42:14;;;;;;;18.93;7.73;;;;;;;9.54;100.00;103681.56;5017995;28;20243;-68
2023/11/23 01:44:40;;;;;;;16.73;7.33;;;;;;;9.58;100.00;103665.13;5019242;28;20599;-69
2023/11/23 01:47:09;;;;;;;16.57;6.30;;;;;;;9.58;100.00;103640.19;5021288;28;20274;-68
2023/11/23 01:49:37;;;;;;;16.17;6.07;;;;;;;9.38;100.00;103582.84;5036960;28;20188;-69
2023/11/23 01:52:03;;;;;;;24.50;6.27;;;;;;;9.47;100.00;103577.56;5018753;28;20531;-69
2023/11/23 01:54:29;;;;;;;25.90;6.60;;;;;;;9.49;100.00;103542.63;5013076;28;20929;-69
2023/11/23 01:56:56;;;;;;;14.13;5.47;;;;;;;9.70;100.00;103569.50;5015077;28;20187;-69
2023/11/23 01:59:22;;;;;;;18.43;5.93;;;;;;;9.46;100.00;103524.13;5018043;28;20306;-69
2023/11/23 02:01:49;;;;;;;18.00;5.53;;;;;;;9.75;100.00;103532.44;5018175;28;21043;-68
2023/11/23 02:04:16;;;;;;;15.17;4.50;;;;;;;9.59;100.00;103489.13;5016682;28;20447;-69
2023/11/23 02:06:41;;;;;;;17.13;4.27;;;;;;;9.85;100.00;103495.84;5018478;28;20443;-69
2023/11/23 02:09:08;;;;;;;13.00;3.60;;;;;;;9.63;100.00;103448.56;5023180;28;20940;-69
2023/11/23 02:11:34;;;;;;;23.20;4.50;;;;;;;10.03;100.00;103458.56;5036459;28;20772;-69
2023/11/23 02:14:00;;;;;;;19.20;4.90;;;;;;;10.00;100.00;103421.28;5018231;28;20439;-68
2023/11/23 02:16:25;;;;;;;18.27;3.90;;;;;;;10.04;100.00;103430.78;5018204;28;20446;-68
2023/11/23 02:18:51;;;;;;;15.10;3.63;;;;;;;9.95;100.00;103392.19;5016926;28;20480;-69
2023/11/23 02:21:16;;;;;;;15.47;3.70;;;;;;;10.02;100.00;103397.88;5016150;28;20195;-68
2023/11/23 02:23:42;;;;;;;15.53;3.47;;;;;;;10.05;100.00;103384.19;5010358;28;20203;-69
2023/11/23 02:26:07;;;;;;;9.63;2.70;;;;;;;9.58;100.00;103291.84;5018987;28;20184;-69
2023/11/23 02:28:33;;;;;;;16.90;3.40;;;;;;;10.02;100.00;103333.53;5017119;28;20200;-68
2023/11/23 02:30:59;;;;;;;17.33;2.70;;;;;;;9.78;100.00;103277.56;5016411;28;20192;-69
2023/11/23 02:33:24;;;;;;;15.60;3.27;;;;;;;10.10;100.00;103298.84;5015951;28;20529;-69
2023/11/23 02:35:50;;;;;;;14.60;3.60;;;;;;;10.31;100.00;103303.31;5014446;28;20181;-69
2023/11/23 02:38:15;;;;;;;18.30;5.10;;;;;;;10.35;100.00;103277.91;5018787;28;20631;-68
2023/11/23 02:40:41;;;;;;;18.47;3.10;;;;;;;10.28;100.00;103258.00;5015203;28;20263;-68
2023/11/23 02:43:07;;;;;;;16.10;2.73;;;;;;;10.11;100.00;103232.66;5014573;28;20291;-69
2023/11/23 02:45:33;;;;;;;21.63;3.40;;;;;;;10.35;100.00;103254.59;5035951;28;20549;-69
2023/11/23 02:47:59;;;;;;;15.07;2.90;;;;;;;10.37;100.00;103235.69;5016576;28;21023;-69
2023/11/23 02:50:25;;;;;;;13.17;2.90;;;;;;;10.11;100.00;103179.00;5017810;28;20193;-68
2023/11/23 02:52:52;;;;;;;15.80;2.90;;;;;;;10.29;100.00;103192.63;5014670;28;20204;-68
2023/11/23 02:55:19;;;;;;;16.00;2.90;;;;;;;10.22;100.00;103178.06;5018294;28;20442;-69
2023/11/23 02:57:45;;;;;;;20.67;3.10;;;;;;;10.34;100.00;103187.69;5014367;28;20942;-69
2023/11/23 03:00:12;;;;;;;22.90;3.77;;;;;;;10.27;100.00;103148.97;5014646;28;20913;-69
2023/11/23 03:02:38;;;;;;;13.83;2.77;;;;;;;10.11;100.00;103125.38;5013670;28;20978;-68
2023/11/23 03:05:04;;;;;;;13.90;2.97;;;;;;;10.17;100.00;103120.28;5013144;28;20435;-68
2023/11/23 03:07:30;;;;;;;19.03;3.20;;;;;;;10.42;100.00;103154.81;5015906;28;20215;-69
2023/11/23 03:09:55;;;;;;;17.17;3.80;;;;;;;10.14;100.00;103101.81;5013872;28;20431;-68
2023/11/23 03:12:21;;;;;;;18.63;4.00;;;;;;;10.04;100.00;103079.50;5014419;28;20227;-68
2023/11/23 03:14:46;;;;;;;13.80;3.27;;;;;;;10.10;100.00;103078.09;5013921;28;20200;-68
2023/11/23 03:17:12;;;;;;;19.47;3.57;;;;;;;10.22;100.00;103090.38;5030693;28;20181;-69
2023/11/23 03:19:37;;;;;;;15.57;3.43;;;;;;;10.20;100.00;103103.06;5017913;28;20185;-69
2023/11/23 03:22:04;;;;;;;13.60;3.17;;;;;;;10.15;100.00;103106.19;5013743;28;20224;-69
2023/11/23 03:24:30;;;;;;;11.93;3.00;;;;;;;10.01;100.00;103044.06;5016321;28;20238;-69
2023/11/23 03:26:56;;;;;;;11.10;3.47;;;;;;;10.18;100.00;103067.50;5017692;28;20439;-68
2023/11/23 03:29:22;;;;;;;16.40;4.00;;;;;;;10.16;100.00;103064.97;5014715;28;20485;-69
2023/11/23 03:31:48;;;;;;;18.07;3.90;;;;;;;10.10;100.00;103038.72;5016629;28;20810;-68
2023/11/23 03:34:13;;;;;;;19.93;3.73;;;;;;;10.11;100.00;103040.41;5013361;28;20597;-69
2023/11/23 03:36:38;;;;;;;13.73;3.13;;;;;;;10.01;100.00;103026.19;5014150;28;20180;-69
2023/11/23 03:39:06;;;;;;;19.67;3.23;;;;;;;10.03;100.00;103036.75;5013708;28;20185;-68
2023/11/23 03:41:32;;;;;;;15.73;2.60;;;;;;;9.85;100.00;103010.63;5022116;28;20207;-68
2023/11/23 03:43:57;;;;;;;15.60;3.37;;;;;;;9.94;100.00;103023.19;5031645;28;20454;-68
2023/11/23 03:46:23;;;;;;;21.80;4.00;;;;;;;9.95;100.00;103029.41;5017645;28;20176;-69
2023/11/23 03:48:48;;;;;;;17.23;4.37;;;;;;;9.88;100.00;103020.25;5021302;28;20200;-68
2023/11/23 03:51:16;;;;;;;18.50;3.10;;;;;;;9.78;100.00;103008.66;5018388;28;20267;-69
2023/11/23 03:53:42;;;;;;;17.50;3.57;;;;;;;9.76;100.00;103000.78;5013268;28;20226;-68
2023/11/23 03:56:14;;;;;;;18.53;2.90;;;;;;;9.79;100.00;103016.56;5013049;28;20440;-68
2023/11/23 03:58:40;;;;;;;20.93;3.47;;;;;;;9.85;100.00;103009.81;5029366;28;20188;-68
2023/11/23 04:01:05;;;;;;;14.17;2.73;;;;;;;9.76;100.00;102995.41;5017053;28;20438;-68
2023/11/23 04:03:30;;;;;;;26.00;4.33;;;;;;;9.68;100.00;102982.69;5019691;28;20223;-69
2023/11/23 04:05:56;;;;;;;16.03;3.07;;;;;;;9.86;100.00;103022.19;5019477;28;20187;-69
2023/11/23 04:08:23;;;;;;;20.33;3.47;;;;;;;9.74;100.00;102995.53;5019658;28;20279;-68
2023/11/23 04:10:48;;;;;;;10.67;2.93;;;;;;;9.62;100.00;102980.59;5022758;28;20192;-68
2023/11/23 04:13:14;;;;;;;17.97;4.10;;;;;;;9.77;100.00;103001.59;5018544;28;20460;-68
2023/11/23 04:15:39;;;;;;;17.30;3.70;;;;;;;9.66;100.00;102989.19;5018424;28;20193;-68
2023/11/23 04:18:05;;;;;;;20.43;3.60;;;;;;;9.20;100.00;102924.59;5021593;28;20168;-69
2023/11/23 04:20:30;;;;;;;17.53;3.63;;;;;;;9.86;100.00;103019.53;5021202;28;20192;-68
2023/11/23 04:22:56;;;;;;;16.20;3.13;;;;;;;9.87;100.00;103008.69;5019156;28;20200;-68
2023/11/23 04:25:21;;;;;;;16.67;3.67;;;;;;;9.81;100.00;102989.63;5024131;28;20188;-69
2023/11/23 04:27:47;;;;;;;15.17;3.30;;;;;;;9.83;100.00;102988.47;5024961;28;20196;-68
2023/11/23 04:30:12;;;;;;;18.33;3.63;;;;;;;9.64;100.00;102949.16;5024322;28;20902;-69
2023/11/23 04:32:38;;;;;;;23.50;3.17;;;;;;;9.76;100.00;102970.44;5021141;28;20287;-68
2023/11/23 04:35:04;;;;;;;17.47;3.77;;;;;;;9.86;100.00;102973.94;5018656;28;20523;-68
2023/11/23 04:37:29;;;;;;;17.37;3.30;;;;;;;9.80;100.00;102977.22;5019737;28;20665;-68
2023/11/23 04:39:54;;;;;;;22.10;4.37;;;;;;;9.91;100.00;102987.78;5016091;28;20995;-68
2023/11/23 04:42:20;;;;;;;16.53;2.70;;;;;;;9.79;100.00;102973.69;5012362;28;20204;-68
2023/11/23 04:44:45;;;;;;;16.13;2.50;;;;;;;9.88;100.00;102974.66;5014737;28;20361;-69
2023/11/23 04:47:11;;;;;;;17.53;3.47;;;;;;;9.72;100.00;102949.28;5013210;28;20205;-69
2023/11/23 04:49:36;;;;;;;14.97;3.83;;;;;;;9.85;100.00;102945.47;5025340;28;20273;-68
2023/11/23 04:52:02;;;;;;;14.27;3.60;;;;;;;9.86;100.00;102945.31;5015009;28;20231;-69
2023/11/23 04:54:27;;;;;;;14.70;3.47;;;;;;;9.84;100.00;102938.44;5015777;28;20338;-68
2023/11/23 04:56:53;;;;;;;15.67;3.10;;;;;;;9.92;100.00;102943.91;5006448;28;20222;-68
2023/11/23 04:59:19;;;;;;;21.43;4.13;;;;;;;9.96;100.00;102950.69;5010750;28;20275;-68
2023/11/23 05:01:44;;;;;;;20.07;3.47;;;;;;;9.96;100.00;102927.41;5011566;28;20736;-68
2023/11/23 05:04:10;;;;;;;19.73;3.57;;;;;;;9.90;100.00;102903.84;5019946;28;20264;-69
2023/11/23 05:06:35;;;;;;;15.03;3.27;;;;;;;9.84;100.00;102888.34;5013068;28;20288;-68
2023/11/23 05:09:02;;;;;;;17.80;2.93;;;;;;;9.66;100.00;102863.25;5014384;28;21092;-68
2023/11/23 05:11:28;;;;;;;14.73;3.23;;;;;;;10.00;100.00;102897.63;5013902;28;20199;-69
2023/11/23 05:13:56;;;;;;;18.27;3.77;;;;;;;9.95;100.00;102882.81;5018409;28;20474;-68
2023/11/23 05:16:21;;;;;;;18.70;3.00;;;;;;;9.86;100.00;102862.22;5019950;28;20439;-69
2023/11/23 05:18:47;;;;;;;15.73;3.47;;;;;;;10.06;100.00;102895.19;5018214;28;20512;-68
2023/11/23 05:21:12;;;;;;;19.20;3.43;;;;;;;9.99;100.00;102866.44;5019989;28;20249;-69
2023/11/23 05:23:38;;;;;;;17.93;3.33;;;;;;;10.07;100.00;102878.13;5027875;28;20277;-68
2023/11/23 05:26:04;;;;;;;13.90;3.40;;;;;;;9.86;100.00;102831.88;5016139;28;20208;-68
2023/11/23 05:28:30;;;;;;;18.93;3.43;;;;;;;9.67;100.00;102803.31;5017854;28;20203;-69
2023/11/23 05:30:56;;;;;;;21.03;3.17;;;;;;;9.94;100.00;102837.38;5020003;28;20809;-68
2023/11/23 05:33:21;;;;;;;17.50;3.60;;;;;;;9.99;100.00;102848.50;5030665;28;20224;-69
2023/11/23 05:35:46;;;;;;;19.03;2.90;;;;;;;10.00;100.00;102841.31;5014537;28;20185;-68
2023/11/23 05:38:12;;;;;;;14.90;3.40;;;;;;;9.88;100.00;102827.25;5016719;28;20188;-69
2023/11/23 05:40:37;;;;;;;17.03;3.60;;;;;;;9.96;100.00;102822.00;5014962;28;20184;-69
2023/11/23 05:43:03;;;;;;;19.90;3.23;;;;;;;10.07;100.00;102835.22;5020669;28;20211;-68
2023/11/23 05:45:30;;;;;;;15.40;3.13;;;;;;;9.99;100.00;102821.69;5017271;28;20211;-69
2023/11/23 05:47:56;;;;;;;17.47;4.07;;;;;;;9.76;100.00;102777.50;5017485;28;20631;-69
2023/11/23 05:50:21;;;;;;;16.73;4.40;;;;;;;10.16;100.00;102855.78;5017840;28;20446;-68
2023/11/23 05:52:47;;;;;;;21.80;3.47;;;;;;;10.21;100.00;102852.66;5021571;28;20207;-69
2023/11/23 05:55:12;;;;;;;15.17;3.17;;;;;;;10.08;100.00;102817.28;5013093;28;20235;-69
2023/11/23 05:57:38;;;;;;;19.50;3.03;;;;;;;10.21;100.00;102839.25;5015726;28;20183;-69
2023/11/23 06:00:04;;;;;;;15.90;2.50;;;;;;;10.12;100.00;102818.69;5019012;28;20196;-69
2023/11/23 06:02:30;;;;;;;15.17;2.73;;;;;;;10.27;100.00;102827.13;5016043;28;20196;-69
2023/11/23 06:04:55;;;;;;;18.80;3.80;;;;;;;10.09;100.00;102806.41;5013606;28;20501;-69
2023/11/23 06:07:20;;;;;;;16.00;2.70;;;;;;;10.16;100.00;102814.72;5017186;28;20216;-69
2023/11/23 06:09:46;;;;;;;14.13;3.30;;;;;;;10.12;100.00;102787.34;5020272;28;20188;-69
2023/11/23 06:12:12;;;;;;;20.97;3.17;;;;;;;10.07;100.00;102791.50;5020089;28;20205;-69
2023/11/23 06:14:37;;;;;;;14.37;3.40;;;;;;;10.08;100.00;102788.63;5029899;28;20446;-69
2023/11/23 06:17:07;;;;;;;18.57;3.30;;;;;;;10.23;100.00;102801.56;5022341;28;20730;-69
2023/11/23 06:19:32;;;;;;;16.60;3.57;;;;;;;10.23;100.00;102788.16;5021531;28;20180;-69
2023/11/23 06:21:57;;;;;;;15.30;3.10;;;;;;;10.18;100.00;102788.59;5017826;28;20826;-69
2023/11/23 06:24:23;;;;;;;10.13;2.80;;;;;;;10.01;100.00;102741.13;5022310;28;20188;-69
2023/11/23 06:26:49;;;;;;;16.20;3.63;;;;;;;10.16;100.00;102775.34;5019033;28;20235;-69
2023/11/23 06:29:15;;;;;;;13.10;2.90;;;;;;;9.98;100.00;102762.84;5020013;28;20201;-69
2023/11/23 06:31:41;;;;;;;19.37;3.10;;;;;;;10.03;100.00;102742.66;5017851;28;20180;-69
2023/11/23 06:34:07;;;;;;;20.63;3.97;;;;;;;10.06;100.00;102742.34;5034713;28;20455;-69
2023/11/23 06:36:32;;;;;;;17.73;3.67;;;;;;;10.22;100.00;102759.66;5022046;28;20443;-69
2023/11/23 06:38:58;;;;;;;10.87;2.90;;;;;;;10.23;100.00;102764.84;5019747;28;20660;-69
2023/11/23 06:41:23;;;;;;;21.13;3.27;;;;;;;9.88;100.00;102680.66;5022075;28;20726;-69
2023/11/23 06:43:49;;;;;;;11.80;3.30;;;;;;;10.26;100.00;102724.31;5024331;28;20887;-69
2023/11/23 06:46:19;;;;;;;12.73;2.83;;;;;;;10.27;100.00;102704.59;5027660;28;20225;-69
2023/11/23 06:48:45;;;;;;;16.90;3.00;;;;;;;10.11;100.00;102678.41;5036515;28;20467;-69
2023/11/23 06:51:11;;;;;;;16.30;2.70;;;;;;;10.34;100.00;102689.59;5019272;28;20458;-69
2023/11/23 06:53:44;;;;;;;15.90;2.87;;;;;;;10.26;100.00;102668.00;5018587;28;20466;-69
2023/11/23 06:56:12;;;;;;;17.67;3.33;;;;;;;10.32;100.00;102675.47;5033323;28;20447;-69
2023/11/23 06:58:41;;;;;;;14.93;3.07;;;;;;;10.36;100.00;102687.59;5023815;28;20485;-69
2023/11/23 07:01:10;;;;;;;19.57;3.10;;;;;;;10.35;100.00;102709.19;5028547;28;20450;-69
2023/11/23 07:03:37;;;;;;;14.00;3.20;;;;;;;10.28;100.00;102681.31;5019691;28;20461;-69
2023/11/23 07:06:03;;;;;;;12.30;2.70;;;;;;;10.42;100.00;102715.66;5035090;28;20447;-69
2023/11/23 07:08:29;;;;;;;22.43;3.00;;;;;;;10.37;100.00;102699.16;5021375;28;21033;-69
2023/11/23 07:10:54;;;;;;;16.93;3.07;;;;;;;10.15;100.00;102677.13;5035064;28;20448;-69
2023/11/23 07:13:20;;;;;;;17.47;3.17;;;;;;;10.27;100.00;102674.25;5018657;28;20205;-69
2023/11/23 07:15:46;;;;;;;13.90;3.63;;;;;;;10.31;100.00;102672.97;5018530;28;20189;-69
2023/11/23 07:18:13;;;;;;;12.67;3.17;;;;;;;10.38;100.00;102682.06;5022038;28;20267;-69
2023/11/23 07:20:38;;;;;;;12.63;2.80;;;;;;;10.12;100.00;102637.19;5036302;28;20440;-69
2023/11/23 07:23:04;;;;;;;21.33;3.37;;;;;;;10.20;100.00;102639.13;5033494;28;20939;-69
2023/11/23 07:25:31;;;;;;;15.80;3.23;;;;;;;10.34;100.00;102654.72;5013625;28;20650;-69
2023/11/23 07:27:56;;;;;;;14.60;2.70;;;;;;;10.28;100.00;102635.72;5014993;28;20197;-69
2023/11/23 07:30:22;;;;;;;15.77;3.80;;;;;;;10.30;100.00;102639.06;5015897;28;20443;-69
2023/11/23 07:32:47;;;;;;;15.53;3.10;;;;;;;10.53;100.00;102658.22;5013209;28;20200;-69
2023/11/23 07:35:13;;;;;;;18.57;2.90;;;;;;;10.58;100.00;102656.75;5011213;28;20576;-69
2023/11/23 07:37:38;;;;;;;13.73;2.80;;;;;;;10.44;100.00;102643.88;5015685;28;20223;-69
2023/11/23 07:40:12;;;;;;;19.40;4.10;;;;;;;10.73;100.00;102665.13;5042853;23;20181;-80
2023/11/23 07:42:42;;;;;;;16.13;2.80;;;;;;;10.68;100.00;102670.13;5001722;28;20230;-74
2023/11/23 07:45:08;;;;;;;21.53;2.70;;;;;;;8.30;100.00;102293.56;4986761;28;20524;-74
2023/11/23 07:47:36;;;;;;;13.00;2.77;;;;;;;10.75;100.00;102673.03;4985552;28;20554;-74
2023/11/23 07:50:01;;;;;;;13.87;2.90;;;;;;;8.87;100.00;102363.81;4965577;28;20470;-74
2023/11/23 07:52:27;;;;;;;15.13;3.13;;;;;;;9.72;100.00;102487.53;4986995;28;20491;-74
2023/11/23 07:54:52;;;;;;;12.83;3.20;;;;;;;9.50;100.00;102470.91;4985553;28;20215;-74
2023/11/23 07:57:19;;;;;;;15.60;3.50;;;;;;;9.61;100.00;102475.22;4989151;28;20705;-74
2023/11/23 07:59:45;;;;;;;14.57;3.10;;;;;;;8.84;100.00;102348.06;4985886;28;20186;-74
2023/11/23 08:02:10;;;;;;;15.27;3.17;;;;;;;10.80;100.00;102668.03;4981393;28;20456;-74
2023/11/23 08:04:36;;;;;;;14.77;2.60;;;;;;;7.80;100.00;102179.88;4982644;28;20527;-74
2023/11/23 08:07:02;;;;;;;13.10;2.67;;;;;;;9.02;100.00;102421.16;4985699;28;20599;-74
2023/11/23 08:09:27;;;;;;;11.30;2.40;;;;;;;10.69;100.00;102660.22;4983552;28;20186;-74
2023/11/23 08:11:55;;;;;;;11.50;2.77;;;;;;;9.33;100.00;102452.16;4983585;28;20560;-74
2023/11/23 08:14:21;;;;;;;14.80;2.20;;;;;;;9.55;100.00;102469.63;5000185;28;20202;-75
2023/11/23 08:16:47;;;;;;;20.17;3.60;;;;;;;8.06;100.00;102193.38;4985241;28;20440;-74
2023/11/23 08:19:14;;;;;;;13.13;2.97;;;;;;;10.54;100.00;102592.84;4985323;28;21034;-75
2023/11/23 08:21:41;;;;;;;13.83;3.17;;;;;;;10.78;100.00;102635.97;4983168;28;20205;-74
2023/11/23 08:24:08;;;;;;;13.30;3.00;;;;;;;9.63;100.00;102413.41;4981783;28;20453;-74
2023/11/23 08:26:34;;;;;;;9.70;2.60;;;;;;;9.45;100.00;102413.44;4984075;28;20863;-74
2023/11/23 08:28:59;;;;;;;15.07;3.23;;;;;;;9.78;100.00;102432.47;4982200;28;20472;-74
2023/11/23 08:31:28;;;;;;;13.07;2.40;;;;;;;9.70;100.00;102436.78;4984526;28;20268;-74
2023/11/23 08:33:57;;;;;;;15.17;2.57;;;;;;;8.40;100.00;102208.00;4984658;28;20206;-74
2023/11/23 08:36:22;;;;;;;11.70;2.97;;;;;;;8.69;100.00;102262.13;4983115;28;21010;-74
2023/11/23 08:38:51;;;;;;;19.50;3.00;;;;;;;8.91;100.00;102289.41;4985977;28;20441;-75
2023/11/23 08:41:18;;;;;;;16.33;2.70;;;;;;;9.17;100.00;102314.44;4992372;28;20203;-74
2023/11/23 08:43:47;;;;;;;14.73;2.77;;;;;;;10.85;100.00;102593.25;4987011;28;20460;-74
2023/11/23 08:46:13;;;;;;;10.30;1.93;;;;;;;9.86;100.00;102438.72;4989724;28;20444;-74
2023/11/23 08:48:39;;;;;;;14.13;3.13;;;;;;;8.54;100.00;102245.75;5004140;28;20561;-74
2023/11/23 08:51:05;;;;;;;14.07;2.20;;;;;;;9.12;100.00;102340.81;4986940;28;20552;-74
2023/11/23 08:53:31;;;;;;;10.70;2.67;;;;;;;9.15;100.00;102334.34;5000147;28;20555;-74
2023/11/23 08:55:56;;;;;;;12.13;3.03;;;;;;;9.49;100.00;102350.53;5003004;28;20436;-74
2023/11/23 08:58:22;;;;;;;10.00;3.10;;;;;;;9.83;100.00;102414.94;5004973;28;20818;-74
2023/11/23 09:00:47;;;;;;;13.60;2.73;;;;;;;9.91;100.00;102423.03;5006969;28;20232;-74
2023/11/23 09:03:13;;;;;;;16.33;3.00;;;;;;;9.37;100.00;102306.22;5001015;28;20205;-74
2023/11/23 09:05:39;;;;;;;13.37;2.90;;;;;;;9.86;100.00;102398.53;4988320;28;20758;-73
2023/11/23 09:08:06;;;;;;;12.63;2.50;;;;;;;7.93;100.00;102049.47;5001789;28;20489;-74
2023/11/23 09:10:35;;;;;;;17.03;2.13;;;;;;;9.99;100.00;102386.59;4990800;28;20200;-75
2023/11/23 09:13:01;;;;;;;10.07;3.07;;;;;;;9.94;100.00;102341.47;5000289;28;20510;-75
2023/11/23 09:15:31;;;;;;;22.17;2.90;;;;;;;9.63;100.00;102304.44;4988393;28;20444;-75
2023/11/23 09:17:56;;;;;;;12.53;2.90;;;;;;;9.91;100.00;102323.03;4989155;28;20875;-74
2023/11/23 09:20:23;;;;;;;14.53;2.67;;;;;;;8.37;100.00;102062.06;4989717;28;20467;-74
2023/11/23 09:22:49;;;;;;;14.93;3.10;;;;;;;9.70;100.00;102297.44;4988881;28;20200;-74
2023/11/23 09:25:14;;;;;;;16.53;3.03;;;;;;;9.18;100.00;102195.66;5002714;28;20945;-74
2023/11/23 09:27:40;;;;;;;14.40;2.80;;;;;;;8.37;100.00;102025.47;5001976;28;20471;-74
2023/11/23 09:30:06;;;;;;;14.37;3.43;;;;;;;9.44;100.00;102210.88;4990218;28;20177;-75
2023/11/23 09:32:33;;;;;;;11.83;2.50;;;;;;;10.09;100.00;102331.84;5003258;28;20613;-74
2023/11/23 09:34:59;;;;;;;8.90;2.67;;;;;;;10.29;100.00;102339.69;4987734;28;20515;-74
2023/11/23 09:37:26;;;;;;;14.33;2.07;;;;;;;8.45;100.00;102043.44;5002568;28;20498;-74
2023/11/23 09:39:51;;;;;;;10.83;3.03;;;;;;;10.34;100.00;102340.06;5003785;28;20446;-74
2023/11/23 09:42:18;;;;;;;9.87;2.50;;;;;;;11.05;100.00;102443.47;5003385;28;20444;-75
2023/11/23 09:44:45;;;;;;;9.80;2.20;;;;;;;9.08;100.00;102100.38;4984982;28;20487;-75
2023/11/23 09:47:13;;;;;;;13.57;3.33;;;;;;;9.73;100.00;102218.59;4988312;28;20509;-75
2023/11/23 09:49:40;;;;;;;11.87;3.40;;;;;;;8.51;100.00;101980.50;4989042;28;20424;-75
2023/11/23 09:52:06;;;;;;;13.23;3.17;;;;;;;11.37;100.00;102453.50;5008821;28;20445;-75
2023/11/23 09:54:33;;;;;;;12.43;2.77;;;;;;;10.33;100.00;102257.94;5002220;28;20460;-74
2023/11/23 09:56:59;;;;;;;13.20;2.60;;;;;;;10.56;100.00;102299.25;5006662;28;20447;-75
2023/11/23 09:59:26;;;;;;;18.03;3.00;;;;;;;11.62;100.00;102457.03;4991406;28;20507;-75
2023/11/23 10:01:58;;;;;;;11.63;2.60;;;;;;;11.49;100.00;102414.56;5009470;28;20444;-74
2023/11/23 10:04:24;;;;;;;9.67;2.23;;;;;;;9.70;100.00;102141.22;5006980;28;20507;-75
2023/11/23 10:06:50;;;;;;;12.50;2.47;;;;;;;9.63;100.00;102095.47;5008289;28;20526;-74
2023/11/23 10:09:16;;;;;;;12.93;2.37;;;;;;;10.25;100.00;102196.19;4993204;28;21220;-75
2023/11/23 10:11:42;;;;;;;13.20;2.80;;;;;;;9.37;100.00;102019.69;4991571;28;20192;-75
2023/11/23 10:14:08;;;;;;;20.70;3.63;;;;;;;10.61;100.00;102215.56;4991629;28;21283;-75
2023/11/23 10:16:35;;;;;;;12.83;2.47;;;;;;;10.12;100.00;102148.38;5008002;28;20431;-74
2023/11/23 10:19:00;;;;;;;10.80;2.53;;;;;;;10.59;100.00;102186.22;4987986;28;20464;-75
2023/11/23 10:21:28;;;;;;;15.03;3.53;;;;;;;9.84;100.00;102059.38;5003495;28;20978;-75
2023/11/23 10:23:54;;;;;;;10.83;2.60;;;;;;;8.82;100.00;101880.00;5006627;28;20295;-76
2023/11/23 10:26:20;;;;;;;16.20;3.37;;;;;;;10.46;100.00;102152.84;5004059;28;20456;-74
2023/11/23 10:28:46;;;;;;;10.73;2.23;;;;;;;10.81;100.00;102190.06;4991439;28;20889;-75
2023/11/23 10:31:12;;;;;;;13.80;2.63;;;;;;;9.57;100.00;101983.59;4988612;28;20448;-74
2023/11/23 10:33:37;;;;;;;10.20;2.30;;;;;;;11.80;100.00;102346.66;5002131;28;20503;-75
2023/11/23 10:36:05;;;;;;;15.53;2.87;;;;;;;10.91;100.00;102173.81;4995635;28;20207;-77
2023/11/23 10:38:39;;;;;;;14.17;2.70;;;;;;;10.73;100.00;102155.22;5009520;28;20694;-78
2023/11/23 10:41:06;;;;;;;7.43;2.30;;;;;;;9.43;100.00;101962.81;4993004;28;20447;-78
2023/11/23 10:43:38;;;;;;;8.70;2.20;;;;;;;10.38;100.00;102094.66;4996289;28;20474;-77
2023/11/23 10:46:09;;;;;;;10.77;2.97;;;;;;;10.99;100.00;102199.81;4994377;28;20547;-77
2023/11/23 10:48:35;;;;;;;14.47;2.60;;;;;;;11.89;100.00;102367.22;4991842;28;20488;-77
2023/11/23 10:51:04;;;;;;;10.70;2.53;;;;;;;10.44;100.00;102125.31;5007613;28;20447;-78
2023/11/23 10:53:30;;;;;;;12.83;2.57;;;;;;;8.91;100.00;101846.09;4994647;28;20463;-77
2023/11/23 10:55:58;;;;;;;9.57;2.10;;;;;;;10.58;100.00;102095.16;5005789;28;20447;-79
2023/11/23 10:58:24;;;;;;;14.20;2.60;;;;;;;9.12;100.00;101877.75;5013731;28;20181;-78
2023/11/23 11:00:51;;;;;;;11.93;2.70;;;;;;;11.97;100.00;102310.69;5008566;28;20447;-78
2023/11/23 11:03:18;;;;;;;15.30;3.07;;;;;;;10.18;100.00;102060.09;5005305;28;20457;-78
2023/11/23 11:05:48;;;;;;;19.60;2.90;;;;;;;9.38;100.00;101879.47;4989681;28;20534;-78